AirNav   MODERNIZE NOT PRIVATIZE ATC
 
 1372 users online  

NJ77 Warren County Public Safety Department Heliport
Franklin, New Jersey, USA


FAA INFORMATION EFFECTIVE 20 JULY 2017

Location

FAA Identifier: NJ77
Lat/Long: 40-44-27.5000N / 075-01-17.4000W
40-44.458333N / 075-01.290000W
40.7409722 / -75.0215000
(estimated)
Elevation: 411 ft. / 125 m (estimated)
From city: 2 miles W of FRANKLIN, NJ
Time zone: UTC -4 (UTC -5 during Standard Time)
Zip code: 07882

Heliport Operations

Heliport use: Private use. Permission required prior to landing
Activation date: 10/2008
Control tower: no
ARTCC: NEW YORK CENTER
FSS: MILLVILLE FLIGHT SERVICE STATION
Attendance: CONTINUOUS
Wind indicator: yes
Segmented circle: no

Heliport Communications

WX ASOS at SMQ (17 nm SE): 120.6 (908-722-2139)
WX ASOS at ABE (20 nm W): PHONE 610-266-3579

Nearby radio navigation aids

VOR radial/distance  VOR name  Freq  Var
BWZr260/9.7BROADWAY VOR/DME114.2011W
SBJr317/15.9SOLBERG VOR/DME112.9010W
STWr215/16.8STILLWATER VOR/DME109.6011W
FJCr098/19.7ALLENTOWN VORTAC117.5010W
SAXr239/29.4SPARTA VORTAC115.7011W
ARDr360/29.7YARDLEY VOR/DME108.2010W
ETXr081/31.6EAST TEXAS VOR/DME110.2009W
PNEr009/(39.5)NORTH PHILADELPHIA VOR112.0010W
PTWr047/39.7POTTSTOWN VORTAC116.5009W

 
NDB name  Hdg/Dist  Freq  Var  ID
CHATHAM283/26.925413WCAT -.-. .- -
AMBLER030/38.827512WING .. -. --.

Heliport Services

Runway Information

Helipad H1

Dimensions: 100 x 100 ft. / 30 x 30 m
Surface: turf
Traffic pattern: leftleft

Heliport Ownership and Management from official FAA records

Ownership: Privately-owned
Owner: WARREN COUNTY
1024 ROUTE 57
WASHINGTON, NJ 07882
Phone 908-835-2051
Manager: FRANK WHEATLEY
1024 ROUTE 57
WASHINGTON, NJ 07882
Phone 908-835-2051

Additional Remarks

A52-H1 H1 HAS 30 FT TREES 50 FT S AND 185 FT TWR 400 SSE OF PAD.

Instrument Procedures

There are no published instrument procedures at NJ77.

Some nearby airports with instrument procedures:

N85 - Alexandria Airport (9 nm S)
N43 - Braden Airpark (10 nm W)
N40 - Sky Manor Airport (11 nm S)
1N7 - Blairstown Airport (14 nm N)
N51 - Solberg-Hunterdon Airport (16 nm SE)
KSMQ - Somerset Airport (17 nm SE)
N53 - Stroudsburg-Pocono Airport (19 nm N)
KABE - Lehigh Valley International Airport (20 nm W)
 
Loc | Ops | Rwys | IFR | FBO | Links
Com | Nav | Svcs | Stats | Notes


 
Aerial photo
No photo
 
Sectional chart

 
Airport distance calculator
Flying to Warren County Public Safety Department Heliport? Find the distance to fly.

From to NJ77

Sunrise and sunset
Times for 21-Jul-2017
 Local
(UTC-4)
 Zulu
(UTC)
Morning civil twilight05:1609:16
Sunrise05:4809:48
Sunset20:2500:25
Evening civil twilight20:5700:57

Current date and time
Zulu (UTC)  21-Jul-2017 19:35:48
Local (UTC-4)  21-Jul-2017 15:35:48
 
METAR
KSMQ 
18nm SE 
ASOS 120.60 908-722-2139
211853Z AUTO VRB03KT 10SM CLR 32/22 A2988 RMK AO2 SLP115 T03220222
KABE 
20nm W 
211851Z VRB06KT 10SM CLR 32/20 A2991 RMK AO2 SLP126 T03220200
K12N 
21nm NE 
211854Z AUTO 00000KT 31/19 A2991 RMK AO1 SLP118 T03060189
KXLL 
24nm SW 
211915Z AUTO 22009KT 10SM SCT048 SCT055 SCT070 31/20 A2993 RMK AO2
KCKZ 
24nm SW 
211915Z AUTO 32006KT 10SM CLR 30/20 A2994 RMK AO2
KUKT 
25nm SW 
211915Z AUTO 27005KT 10SM FEW046 31/20 A2994 RMK AO1
KDYL 
25nm S 
211854Z AUTO 31007KT 10SM CLR 32/19 A2991 RMK AO2 SLP121 T03220194
KMMU 
28nm E 
211850Z 27007KT 10SM FEW040 SCT055 32/19 A2989
KMPO 
29nm NW 
211853Z AUTO 27005KT 10SM FEW055 26/18 A2999 RMK AO2 SLP141 T02610183
KTTN 
29nm S 
ASOS 133.70 609-538-8690
211853Z 30006KT 10SM CLR 32/21 A2990 RMK AO2 SLP116 T03220211
TAF
KABE 
20nm W 
211733Z 2118/2218 27006KT P6SM SCT050 FM220100 VRB03KT P6SM SCT100 TEMPO 2208/2212 4SM BR FM221600 27004KT P6SM SCT050
NOTAMs
Click for the latest NOTAMs
NOTAMs are issued by the DoD/FAA and will open in a separate window not controlled by AirNav.

 

 
 

Would you like to see your business listed on this page?

 If your business provides an interesting product or service to pilots, flight crews, aircraft, or users of the Warren County Public Safety Department Heliport, you should consider listing it here.  To start the listing process, click on the button below
 
Add a business
 

Other Pages about Warren County Public Safety Department Heliport

Update a link
 
Copyright © AirNav, LLC. All rights reserved. Privacy Policy  Contact